createdAt,value
2023-05-15T00:00:17.501Z,2.88
2023-05-15T00:01:22.065Z,2.83
2023-05-15T00:02:24.878Z,2.67
2023-05-15T00:03:28.066Z,2.80
2023-05-15T00:04:30.971Z,2.72
2023-05-15T00:05:33.928Z,2.65
2023-05-15T00:06:36.692Z,2.83
2023-05-15T00:07:39.474Z,2.70
2023-05-15T00:08:42.259Z,2.92
2023-05-15T00:09:45.243Z,2.35
2023-05-15T00:11:00.193Z,2.65
2023-05-15T00:12:04.363Z,2.90
2023-05-15T00:13:07.165Z,2.50
2023-05-15T00:14:09.951Z,2.88
2023-05-15T00:15:13.127Z,2.90
2023-05-15T00:16:16.178Z,2.83
2023-05-15T00:17:19.334Z,2.53
2023-05-15T00:18:22.192Z,2.75
2023-05-15T00:19:24.947Z,3.13
2023-05-15T00:20:27.772Z,2.60
2023-05-15T00:21:31.369Z,2.70
2023-05-15T00:22:34.230Z,2.53
2023-05-15T00:23:36.934Z,2.80
2023-05-15T00:24:40.053Z,2.55
2023-05-15T00:25:42.850Z,2.97
2023-05-15T00:26:45.712Z,2.40
2023-05-15T00:27:48.485Z,2.60
2023-05-15T00:28:51.729Z,3.03
2023-05-15T00:29:54.505Z,3.20
2023-05-15T00:30:57.416Z,2.67
2023-05-15T00:32:00.294Z,3.55
2023-05-15T00:33:03.169Z,2.55
2023-05-15T00:34:06.147Z,2.80
2023-05-15T00:35:09.527Z,2.65
2023-05-15T00:36:12.389Z,2.80
2023-05-15T00:37:15.360Z,2.53
2023-05-15T00:38:18.064Z,2.50
2023-05-15T00:39:20.960Z,3.10
2023-05-15T00:40:26.404Z,2.72
2023-05-15T00:41:32.790Z,2.72
2023-05-15T00:42:36.282Z,3.33
2023-05-15T00:43:40.858Z,3.40
2023-05-15T00:44:45.904Z,2.65
2023-05-15T00:45:49.845Z,2.55
2023-05-15T00:46:54.851Z,2.72
2023-05-15T00:47:59.683Z,3.53
2023-05-15T00:49:05.305Z,2.90
2023-05-15T00:50:13.194Z,2.97
2023-05-15T00:51:16.903Z,2.58
2023-05-15T00:52:20.767Z,2.50
2023-05-15T00:53:24.870Z,3.17
2023-05-15T00:54:27.694Z,3.00
2023-05-15T00:55:31.747Z,3.20
2023-05-15T00:56:35.182Z,2.85
2023-05-15T00:57:38.456Z,2.72
2023-05-15T00:58:42.811Z,2.63
2023-05-15T00:59:46.998Z,2.58
2023-05-15T01:00:51.055Z,2.90
2023-05-15T01:01:54.008Z,2.75
2023-05-15T01:02:57.024Z,2.97
2023-05-15T01:04:00.012Z,3.45
2023-05-15T01:05:04.108Z,2.63
2023-05-15T01:06:07.174Z,2.72
2023-05-15T01:07:10.661Z,2.67
2023-05-15T01:08:32.648Z,2.45
2023-05-15T01:09:37.945Z,2.78
2023-05-15T01:10:43.312Z,2.50
2023-05-15T01:11:47.773Z,2.72
2023-05-15T01:12:54.364Z,2.50
2023-05-15T01:13:57.448Z,2.58
2023-05-15T01:15:00.252Z,2.40
2023-05-15T01:16:03.608Z,2.67
2023-05-15T01:17:06.418Z,2.58
2023-05-15T01:18:11.116Z,3.03
2023-05-15T01:19:14.435Z,2.53
2023-05-15T01:20:19.775Z,2.92
2023-05-15T01:21:40.988Z,2.40
2023-05-15T01:22:54.916Z,2.40
2023-05-15T01:24:08.206Z,2.17
2023-05-15T01:25:46.414Z,2.78
2023-05-15T01:26:57.584Z,2.70
2023-05-15T01:28:06.506Z,2.47
2023-05-15T01:29:12.872Z,2.78
2023-05-15T01:30:27.430Z,3.28
2023-05-15T01:31:32.954Z,2.58
2023-05-15T01:32:56.115Z,2.80
2023-05-15T01:34:03.199Z,2.70
2023-05-15T01:35:29.309Z,2.63
2023-05-15T01:36:41.520Z,2.65
2023-05-15T01:37:50.134Z,2.60
2023-05-15T01:39:00.616Z,2.50
2023-05-15T01:40:07.920Z,2.55
2023-05-15T01:41:13.413Z,2.63
2023-05-15T01:42:18.400Z,3.15
2023-05-15T01:43:26.225Z,3.05
2023-05-15T01:44:32.333Z,2.53
2023-05-15T01:45:38.356Z,2.80
2023-05-15T01:46:46.200Z,2.30
2023-05-15T01:47:49.782Z,2.83
2023-05-15T01:48:53.825Z,2.85
2023-05-15T01:49:57.824Z,2.58
2023-05-15T01:51:05.088Z,2.35
2023-05-15T01:52:21.087Z,2.60
2023-05-15T01:53:24.461Z,2.88
2023-05-15T01:54:29.734Z,2.60
2023-05-15T01:55:33.718Z,2.80
2023-05-15T01:56:38.223Z,2.90
2023-05-15T01:57:42.740Z,2.60
2023-05-15T01:58:47.220Z,2.20
2023-05-15T01:59:51.041Z,2.50
2023-05-15T02:00:55.257Z,3.20
2023-05-15T02:01:59.219Z,2.63
2023-05-15T02:03:02.458Z,2.47
2023-05-15T02:04:06.152Z,2.92
2023-05-15T02:05:09.994Z,2.28
2023-05-15T02:06:14.268Z,2.80
2023-05-15T02:07:17.573Z,2.28
2023-05-15T02:08:21.689Z,2.63
2023-05-15T02:09:25.173Z,2.55
2023-05-15T02:10:29.011Z,2.40
2023-05-15T02:11:31.794Z,2.50
2023-05-15T02:12:35.521Z,2.50
2023-05-15T02:13:39.683Z,2.33
2023-05-15T02:14:44.051Z,2.28
2023-05-15T02:15:48.327Z,3.03
2023-05-15T02:16:51.878Z,2.45
2023-05-15T02:17:54.688Z,2.42
2023-05-15T02:18:58.759Z,2.78
2023-05-15T02:20:01.576Z,2.63
2023-05-15T02:21:06.385Z,3.05
2023-05-15T02:22:09.372Z,3.15
2023-05-15T02:23:12.179Z,2.58
2023-05-15T02:24:14.891Z,2.90
2023-05-15T02:25:24.036Z,2.83
2023-05-15T02:26:33.576Z,2.47
2023-05-15T02:27:52.175Z,2.33
2023-05-15T02:29:09.824Z,2.38
2023-05-15T02:30:41.119Z,2.20
2023-05-15T02:32:09.733Z,2.50
2023-05-15T02:33:31.509Z,2.42
2023-05-15T02:34:45.849Z,2.40
2023-05-15T02:36:11.567Z,2.72
2023-05-15T02:37:18.506Z,2.78
2023-05-15T02:38:38.229Z,2.60
2023-05-15T02:39:42.902Z,1.88
2023-05-15T02:40:48.189Z,2.55
2023-05-15T02:41:53.354Z,2.22
2023-05-15T02:42:58.121Z,2.17
2023-05-15T02:44:01.688Z,3.03
2023-05-15T02:45:06.592Z,2.25
2023-05-15T02:46:09.602Z,2.45
2023-05-15T02:47:12.916Z,2.40
2023-05-15T02:48:17.963Z,2.88
2023-05-15T02:49:22.878Z,2.38
2023-05-15T02:50:26.015Z,2.92
2023-05-15T02:51:30.310Z,2.42
2023-05-15T02:52:35.446Z,2.70
2023-05-15T02:53:42.223Z,2.40
2023-05-15T02:54:45.063Z,2.45
2023-05-15T02:55:48.242Z,2.15
2023-05-15T02:56:51.600Z,2.67
2023-05-15T02:57:54.465Z,2.80
2023-05-15T02:58:57.274Z,2.20
2023-05-15T03:00:00.695Z,2.70
2023-05-15T03:01:04.769Z,2.47
2023-05-15T03:02:07.858Z,2.42
2023-05-15T03:03:10.606Z,2.35
2023-05-15T03:04:16.536Z,2.75
2023-05-15T03:05:19.401Z,2.40
2023-05-15T03:06:22.310Z,2.67
2023-05-15T03:07:25.229Z,2.53
2023-05-15T03:08:29.244Z,2.53
2023-05-15T03:09:32.040Z,2.20
2023-05-15T03:10:34.939Z,2.83
2023-05-15T03:11:37.772Z,2.47
2023-05-15T03:12:40.650Z,2.42
2023-05-15T03:13:43.400Z,2.70
2023-05-15T03:14:46.262Z,2.40
2023-05-15T03:15:49.018Z,2.70
2023-05-15T03:16:54.444Z,2.35
2023-05-15T03:17:57.301Z,2.42
2023-05-15T03:19:00.197Z,2.40
2023-05-15T03:20:03.008Z,2.25
2023-05-15T03:21:06.906Z,2.78
2023-05-15T03:22:09.648Z,2.67
2023-05-15T03:23:12.459Z,2.30
2023-05-15T03:24:15.242Z,2.50
2023-05-15T03:25:18.141Z,2.83
2023-05-15T03:26:20.856Z,2.53
2023-05-15T03:27:23.889Z,2.60
2023-05-15T03:28:26.853Z,2.83
2023-05-15T03:29:29.793Z,2.58
2023-05-15T03:30:32.503Z,2.88
2023-05-15T03:31:35.408Z,2.50
2023-05-15T03:32:38.345Z,2.28
2023-05-15T03:33:41.327Z,2.13
2023-05-15T03:34:44.168Z,2.30
2023-05-15T03:35:47.123Z,2.70
2023-05-15T03:36:50.806Z,2.53
2023-05-15T03:37:53.713Z,2.53
2023-05-15T03:38:56.493Z,2.47
2023-05-15T03:39:59.754Z,2.80
2023-05-15T03:41:03.056Z,2.80
2023-05-15T03:42:08.532Z,2.35
2023-05-15T03:43:11.797Z,2.65
2023-05-15T03:44:14.619Z,2.25
2023-05-15T03:45:17.522Z,2.60
2023-05-15T03:46:23.200Z,2.70
2023-05-15T03:47:26.163Z,2.42
2023-05-15T03:48:29.346Z,2.70
2023-05-15T03:49:32.080Z,2.65
2023-05-15T03:50:34.922Z,2.60
2023-05-15T03:51:39.144Z,2.80
2023-05-15T03:52:42.418Z,2.83
2023-05-15T03:53:45.219Z,3.08
2023-05-15T03:54:48.358Z,2.65
2023-05-15T03:55:51.105Z,2.38
2023-05-15T03:56:54.066Z,2.42
2023-05-15T03:57:58.019Z,2.70
2023-05-15T03:59:00.927Z,2.67
2023-05-15T04:00:10.135Z,2.35
2023-05-15T04:01:16.614Z,2.60
2023-05-15T04:02:19.301Z,2.45
2023-05-15T04:03:22.218Z,2.58
2023-05-15T04:04:25.048Z,2.90
2023-05-15T04:05:28.178Z,2.72
2023-05-15T04:06:31.758Z,2.72
2023-05-15T04:07:36.415Z,2.70
2023-05-15T04:08:39.767Z,2.92
2023-05-15T04:09:43.804Z,2.60
2023-05-15T04:10:46.623Z,2.63
2023-05-15T04:11:49.428Z,2.60
2023-05-15T04:12:52.210Z,2.58
2023-05-15T04:13:55.076Z,2.25
2023-05-15T04:15:13.399Z,2.45
2023-05-15T04:16:16.252Z,2.40
2023-05-15T04:17:19.212Z,2.75
2023-05-15T04:18:22.071Z,2.85
2023-05-15T04:19:24.833Z,2.40
2023-05-15T04:20:27.652Z,2.40
2023-05-15T04:21:30.320Z,2.55
2023-05-15T04:22:33.094Z,2.63
2023-05-15T04:23:35.991Z,2.72
2023-05-15T04:24:38.750Z,2.42
2023-05-15T04:25:46.313Z,2.65
2023-05-15T04:26:49.364Z,2.60
2023-05-15T04:27:52.307Z,2.35
2023-05-15T04:30:06.466Z,2.60
2023-05-15T04:31:09.516Z,2.40
2023-05-15T04:32:13.048Z,2.78
2023-05-15T04:33:16.009Z,2.70
2023-05-15T04:34:18.871Z,2.70
2023-05-15T04:35:22.013Z,2.17
2023-05-15T04:36:24.806Z,2.60
2023-05-15T04:37:28.366Z,2.42
2023-05-15T04:38:31.056Z,2.53
2023-05-15T04:39:33.866Z,2.40
2023-05-15T04:40:36.735Z,2.35
2023-05-15T04:41:39.568Z,2.90
2023-05-15T04:42:42.487Z,2.60
2023-05-15T04:43:45.275Z,2.08
2023-05-15T04:44:48.005Z,2.47
2023-05-15T04:45:51.019Z,2.83
2023-05-15T04:46:53.740Z,2.80
2023-05-15T04:47:56.649Z,2.30
2023-05-15T04:48:59.401Z,2.22
2023-05-15T04:50:02.232Z,2.25
2023-05-15T04:51:05.095Z,2.55
2023-05-15T04:52:08.281Z,2.58
2023-05-15T04:53:11.257Z,2.65
2023-05-15T04:54:14.146Z,2.78
2023-05-15T04:55:20.074Z,2.70
2023-05-15T04:56:23.289Z,2.55
2023-05-15T04:57:26.324Z,2.67
2023-05-15T04:58:32.894Z,2.50
2023-05-15T04:59:35.767Z,2.53
2023-05-15T05:00:42.984Z,2.35
2023-05-15T05:01:45.896Z,2.63
2023-05-15T05:02:51.739Z,2.45
2023-05-15T05:03:54.558Z,2.58
2023-05-15T05:04:57.514Z,2.80
2023-05-15T05:06:00.759Z,2.70
2023-05-15T05:07:05.972Z,2.67
2023-05-15T05:08:08.661Z,2.67
2023-05-15T05:09:11.563Z,2.47
2023-05-15T05:10:14.319Z,2.40
2023-05-15T05:11:17.188Z,2.85
2023-05-15T05:12:19.883Z,3.05
2023-05-15T05:13:22.695Z,2.72
2023-05-15T05:14:26.673Z,2.70
2023-05-15T05:15:29.761Z,2.97
2023-05-15T05:16:32.579Z,3.00
2023-05-15T05:17:35.582Z,2.60
2023-05-15T05:18:38.368Z,2.70
2023-05-15T05:19:42.024Z,2.90
2023-05-15T05:20:44.803Z,2.90
2023-05-15T05:21:47.679Z,2.55
2023-05-15T05:22:50.525Z,2.75
2023-05-15T05:23:53.322Z,2.70
2023-05-15T05:24:56.475Z,2.75
2023-05-15T05:26:00.169Z,2.50
2023-05-15T05:27:02.991Z,2.28
2023-05-15T05:28:05.943Z,3.13
2023-05-15T05:29:11.900Z,2.40
2023-05-15T05:30:15.308Z,2.08
2023-05-15T05:31:21.462Z,2.75
2023-05-15T05:32:24.861Z,2.75
2023-05-15T05:33:27.705Z,2.60
2023-05-15T05:34:30.639Z,2.70
2023-05-15T05:35:33.357Z,2.30
2023-05-15T05:36:38.616Z,2.78
2023-05-15T05:37:41.629Z,2.67
2023-05-15T05:38:44.564Z,3.05
2023-05-15T05:39:47.280Z,2.83
2023-05-15T05:40:52.741Z,3.03
2023-05-15T05:41:55.545Z,2.65
2023-05-15T05:43:02.410Z,2.75
2023-05-15T05:44:05.288Z,2.65
2023-05-15T05:45:10.507Z,2.72
2023-05-15T05:46:13.336Z,2.67
2023-05-15T05:47:16.412Z,2.75
2023-05-15T05:48:19.408Z,2.28
2023-05-15T05:49:24.863Z,2.50
2023-05-15T05:50:27.906Z,2.97
2023-05-15T05:51:32.010Z,3.05
2023-05-15T05:52:36.021Z,2.67
2023-05-15T05:53:41.457Z,2.47
2023-05-15T05:54:46.570Z,2.92
2023-05-15T05:55:49.413Z,2.50
2023-05-15T05:56:52.151Z,2.60
2023-05-15T05:57:55.197Z,2.50
2023-05-15T05:58:58.174Z,2.63
2023-05-15T06:00:00.999Z,2.97
2023-05-15T06:01:05.956Z,2.67
2023-05-15T06:02:09.248Z,2.50
2023-05-15T06:03:12.440Z,2.83
2023-05-15T06:04:17.537Z,2.72
2023-05-15T06:05:20.942Z,2.80
2023-05-15T06:06:23.750Z,2.63
2023-05-15T06:07:26.881Z,2.72
2023-05-15T06:08:32.653Z,2.70
2023-05-15T06:09:35.489Z,2.58
2023-05-15T06:10:38.387Z,2.70
2023-05-15T06:11:41.510Z,3.08
2023-05-15T06:12:44.576Z,2.50
2023-05-15T06:13:47.332Z,2.70
2023-05-15T06:14:50.152Z,2.05
2023-05-15T06:15:52.943Z,2.90
2023-05-15T06:16:55.784Z,3.38
2023-05-15T06:17:58.722Z,3.15
2023-05-15T06:19:01.738Z,2.30
2023-05-15T06:20:12.298Z,2.83
2023-05-15T06:21:15.191Z,2.90
2023-05-15T06:22:20.918Z,2.83
2023-05-15T06:23:27.062Z,2.67
2023-05-15T06:24:30.774Z,2.75
2023-05-15T06:25:33.699Z,2.92
2023-05-15T06:26:40.008Z,2.80
2023-05-15T06:27:42.850Z,2.67
2023-05-15T06:28:45.548Z,3.20
2023-05-15T06:29:48.329Z,2.97
2023-05-15T06:30:51.088Z,2.70
2023-05-15T06:31:54.235Z,3.10
2023-05-15T06:32:57.098Z,2.70
2023-05-15T06:34:00.066Z,3.80
2023-05-15T06:35:03.454Z,2.92
2023-05-15T06:36:09.498Z,3.15
2023-05-15T06:37:12.712Z,3.15
2023-05-15T06:38:15.619Z,3.00
2023-05-15T06:39:20.379Z,3.10
2023-05-15T06:40:25.260Z,2.80
2023-05-15T06:41:28.190Z,3.22
2023-05-15T06:42:31.515Z,3.28
2023-05-15T06:43:35.397Z,2.85
2023-05-15T06:44:39.193Z,2.63
2023-05-15T06:45:42.834Z,3.50
2023-05-15T06:46:48.539Z,3.60
2023-05-15T06:47:51.404Z,3.30
2023-05-15T06:48:54.288Z,3.10
2023-05-15T06:49:59.313Z,3.35
2023-05-15T06:51:02.188Z,3.67
2023-05-15T06:52:05.350Z,3.90
2023-05-15T06:53:08.221Z,3.65
2023-05-15T06:54:11.270Z,3.42
2023-05-15T06:55:14.103Z,3.85
2023-05-15T06:56:16.857Z,3.75
2023-05-15T06:57:20.262Z,3.97
2023-05-15T06:58:23.117Z,4.22
2023-05-15T06:59:26.446Z,3.20
2023-05-15T07:00:29.147Z,3.80
2023-05-15T07:01:32.558Z,3.85
2023-05-15T07:02:35.319Z,3.72
2023-05-15T07:03:38.296Z,3.75
2023-05-15T07:04:41.311Z,3.90
2023-05-15T07:05:45.579Z,3.60
2023-05-15T07:06:48.285Z,3.50
2023-05-15T07:07:51.124Z,3.75
2023-05-15T07:08:53.874Z,3.42
2023-05-15T07:09:58.431Z,4.38
2023-05-15T07:11:01.413Z,4.00
2023-05-15T07:12:04.511Z,4.05
2023-05-15T07:13:13.729Z,3.40
2023-05-15T07:14:16.774Z,4.30
2023-05-15T07:15:19.573Z,4.20
2023-05-15T07:16:22.446Z,4.43
2023-05-15T07:17:25.268Z,3.63
2023-05-15T07:18:28.298Z,4.00
2023-05-15T07:19:34.258Z,3.83
2023-05-15T07:20:37.523Z,3.55
2023-05-15T07:21:40.710Z,4.55
2023-05-15T07:22:54.851Z,3.85
2023-05-15T07:23:58.759Z,3.58
2023-05-15T07:25:02.299Z,3.92
2023-05-15T07:26:05.064Z,3.85
2023-05-15T07:27:10.837Z,3.75
2023-05-15T07:28:13.568Z,3.53
2023-05-15T07:29:16.386Z,4.07
2023-05-15T07:30:19.573Z,4.38
2023-05-15T07:31:22.471Z,4.10
2023-05-15T07:32:25.348Z,4.55
2023-05-15T07:33:28.217Z,4.03
2023-05-15T07:34:32.343Z,4.35
2023-05-15T07:35:35.230Z,4.15
2023-05-15T07:36:38.128Z,4.43
2023-05-15T07:37:41.443Z,4.32
2023-05-15T07:38:44.270Z,3.83
2023-05-15T07:39:47.229Z,3.67
2023-05-15T07:40:49.946Z,3.83
2023-05-15T07:41:52.797Z,4.32
2023-05-15T07:42:55.592Z,4.72
2023-05-15T07:43:58.367Z,4.50
2023-05-15T07:45:01.382Z,4.28
2023-05-15T07:46:08.458Z,4.15
2023-05-15T07:47:11.281Z,4.50
2023-05-15T07:48:15.601Z,4.28
2023-05-15T07:49:18.297Z,4.28
2023-05-15T07:50:21.698Z,4.63
2023-05-15T07:51:24.523Z,4.65
2023-05-15T07:52:27.382Z,5.00
2023-05-15T07:53:30.105Z,4.43
2023-05-15T07:54:32.977Z,4.78
2023-05-15T07:55:36.884Z,4.70
2023-05-15T07:56:40.236Z,4.68
2023-05-15T07:57:42.968Z,4.20
2023-05-15T07:58:45.807Z,4.20
2023-05-15T07:59:48.541Z,4.80
2023-05-15T08:00:51.368Z,5.05
2023-05-15T08:01:54.382Z,4.47
2023-05-15T08:02:57.250Z,4.72
2023-05-15T08:04:00.629Z,4.82
2023-05-15T08:05:03.678Z,4.38
2023-05-15T08:06:08.441Z,5.05
2023-05-15T08:07:11.414Z,4.32
2023-05-15T08:08:14.683Z,4.53
2023-05-15T08:09:17.581Z,4.15
2023-05-15T08:10:20.522Z,4.28
2023-05-15T08:11:23.726Z,4.90
2023-05-15T08:12:26.916Z,4.45
2023-05-15T08:13:29.744Z,4.43
2023-05-15T08:14:32.519Z,5.07
2023-05-15T08:15:35.478Z,4.85
2023-05-15T08:16:38.260Z,4.57
2023-05-15T08:17:41.709Z,4.88
2023-05-15T08:18:44.597Z,4.32
2023-05-15T08:19:48.368Z,4.57
2023-05-15T08:20:52.580Z,4.40
2023-05-15T08:21:55.924Z,4.57
2023-05-15T08:22:58.790Z,4.82
2023-05-15T08:24:01.600Z,4.18
2023-05-15T08:25:06.176Z,4.60
2023-05-15T08:27:14.152Z,4.80
2023-05-15T08:28:17.184Z,4.32
2023-05-15T08:29:19.942Z,4.70
2023-05-15T08:30:32.261Z,4.68
2023-05-15T08:31:35.044Z,4.20
2023-05-15T08:32:37.925Z,4.43
2023-05-15T08:33:40.797Z,4.78
2023-05-15T08:34:43.645Z,4.18
2023-05-15T08:35:46.587Z,4.13
2023-05-15T08:36:49.427Z,4.38
2023-05-15T08:37:52.137Z,4.20
2023-05-15T08:38:55.055Z,3.85
2023-05-15T08:39:57.825Z,4.65
2023-05-15T08:41:08.383Z,4.40
2023-05-15T08:42:35.684Z,4.30
2023-05-15T08:43:41.588Z,4.38
2023-05-15T08:44:45.010Z,4.13
2023-05-15T08:45:49.526Z,4.43
2023-05-15T08:47:59.269Z,4.28
2023-05-15T08:49:11.650Z,4.13
2023-05-15T08:50:17.532Z,4.88
2023-05-15T08:51:22.573Z,4.80
2023-05-15T08:52:26.280Z,4.65
2023-05-15T08:53:29.751Z,5.00
2023-05-15T08:54:33.189Z,4.65
2023-05-15T08:55:36.185Z,4.88
2023-05-15T08:56:39.145Z,4.55
2023-05-15T08:57:43.025Z,5.38
2023-05-15T08:58:46.381Z,5.35
2023-05-15T08:59:53.024Z,4.68
2023-05-15T09:00:57.569Z,4.22
2023-05-15T09:02:00.767Z,5.13
2023-05-15T09:03:03.652Z,4.60
2023-05-15T09:04:06.583Z,5.28
2023-05-15T09:05:10.280Z,4.65
2023-05-15T09:06:14.088Z,4.55
2023-05-15T09:07:17.451Z,5.40
2023-05-15T09:08:23.142Z,4.43
2023-05-15T09:09:28.399Z,5.13
2023-05-15T09:10:32.172Z,4.70
2023-05-15T09:11:44.092Z,5.07
2023-05-15T09:12:52.414Z,5.45
2023-05-15T09:13:59.064Z,5.15
2023-05-15T09:15:21.969Z,4.78
2023-05-15T09:16:24.825Z,4.90
2023-05-15T09:17:27.708Z,5.00
2023-05-15T09:18:35.918Z,5.40
2023-05-15T09:19:43.050Z,5.28
2023-05-15T09:20:45.829Z,4.63
2023-05-15T09:21:49.688Z,4.95
2023-05-15T09:22:59.400Z,5.22
2023-05-15T09:24:23.708Z,4.82
2023-05-15T09:25:40.885Z,5.13
2023-05-15T09:26:44.945Z,5.22
2023-05-15T09:27:47.813Z,4.90
2023-05-15T09:28:50.862Z,4.65
2023-05-15T09:29:56.631Z,4.72
2023-05-15T09:31:04.760Z,4.97
2023-05-15T09:32:13.241Z,4.82
2023-05-15T09:33:17.668Z,4.70
2023-05-15T09:34:33.316Z,4.18
2023-05-15T09:35:40.828Z,4.22
2023-05-15T09:36:45.245Z,4.47
2023-05-15T09:37:59.926Z,4.38
2023-05-15T09:39:03.379Z,4.75
2023-05-15T09:40:11.360Z,4.88
2023-05-15T09:41:14.356Z,4.13
2023-05-15T09:42:17.236Z,4.60
2023-05-15T09:43:19.984Z,4.75
2023-05-15T09:44:27.076Z,4.10
2023-05-15T09:45:31.691Z,4.95
2023-05-15T09:46:36.878Z,4.38
2023-05-15T09:47:40.002Z,4.45
2023-05-15T09:48:43.059Z,5.25
2023-05-15T09:49:47.142Z,4.10
2023-05-15T09:50:50.123Z,4.22
2023-05-15T09:51:53.057Z,4.20
2023-05-15T09:52:59.918Z,4.28
2023-05-15T09:54:02.792Z,4.28
2023-05-15T09:55:07.557Z,4.82
2023-05-15T09:56:13.708Z,5.10
2023-05-15T09:57:16.669Z,4.22
2023-05-15T09:58:19.764Z,4.07
2023-05-15T09:59:22.681Z,4.70
2023-05-15T10:00:25.681Z,4.47
2023-05-15T10:01:28.782Z,4.93
2023-05-15T10:02:32.824Z,4.97
2023-05-15T10:03:35.927Z,5.05
2023-05-15T10:04:39.096Z,4.57
2023-05-15T10:05:43.388Z,4.70
2023-05-15T10:06:48.600Z,5.03
2023-05-15T10:07:55.654Z,4.60
2023-05-15T10:08:58.772Z,4.63
2023-05-15T10:10:03.460Z,4.93
2023-05-15T10:11:07.676Z,4.28
2023-05-15T10:12:11.022Z,4.80
2023-05-15T10:13:13.897Z,5.20
2023-05-15T10:14:18.942Z,4.68
2023-05-15T10:15:23.176Z,4.15
2023-05-15T10:16:26.229Z,4.47
2023-05-15T10:17:31.972Z,4.60
2023-05-15T10:18:37.479Z,4.25
2023-05-15T10:19:56.698Z,4.88
2023-05-15T10:21:04.751Z,4.80
2023-05-15T10:22:11.556Z,4.75
2023-05-15T10:23:23.037Z,4.68
2023-05-15T10:24:29.054Z,5.20
2023-05-15T10:26:03.422Z,4.82
2023-05-15T10:27:06.867Z,5.00
2023-05-15T10:28:11.757Z,4.80
2023-05-15T10:29:17.717Z,4.68
2023-05-15T10:30:21.951Z,5.20
2023-05-15T10:31:25.615Z,5.18
2023-05-15T10:32:30.604Z,4.88
2023-05-15T10:33:34.510Z,5.07
2023-05-15T10:34:37.565Z,4.47
2023-05-15T10:35:41.799Z,4.20
2023-05-15T10:36:45.502Z,5.80
2023-05-15T10:37:49.429Z,4.28
2023-05-15T10:38:52.907Z,5.07
2023-05-15T10:39:57.745Z,5.00
2023-05-15T10:41:15.638Z,5.35
2023-05-15T10:42:21.120Z,4.30
2023-05-15T10:43:24.898Z,4.88
2023-05-15T10:44:27.642Z,4.82
2023-05-15T10:45:31.852Z,5.10
2023-05-15T10:46:39.353Z,5.28
2023-05-15T10:47:44.169Z,4.90
2023-05-15T10:48:47.092Z,4.63
2023-05-15T10:49:50.025Z,4.63
2023-05-15T10:50:52.911Z,4.78
2023-05-15T10:51:56.410Z,4.60
2023-05-15T10:53:00.186Z,4.93
2023-05-15T10:54:06.526Z,5.38
2023-05-15T10:55:14.051Z,4.93
2023-05-15T10:56:18.040Z,5.07
2023-05-15T10:57:23.926Z,4.72
2023-05-15T10:58:26.801Z,4.80
2023-05-15T10:59:33.497Z,5.00
2023-05-15T11:00:46.133Z,4.70
2023-05-15T11:01:49.550Z,4.55
2023-05-15T11:02:54.051Z,4.40
2023-05-15T11:04:10.057Z,4.90
2023-05-15T11:05:14.395Z,5.10
2023-05-15T11:06:17.162Z,5.20
2023-05-15T11:07:20.780Z,4.80
2023-05-15T11:08:27.612Z,4.93
2023-05-15T11:09:35.699Z,4.82
2023-05-15T11:10:39.594Z,5.10
2023-05-15T11:13:02.992Z,5.32
2023-05-15T11:14:06.116Z,4.82
2023-05-15T11:15:12.572Z,5.25
2023-05-15T11:16:53.749Z,5.07
2023-05-15T11:18:05.151Z,5.50
2023-05-15T11:19:54.728Z,4.78
2023-05-15T11:21:00.784Z,4.93
2023-05-15T11:22:09.814Z,5.60
2023-05-15T11:23:22.066Z,5.47
2023-05-15T11:24:32.172Z,5.35
2023-05-15T11:25:36.456Z,5.13
2023-05-15T11:26:43.305Z,4.85
2023-05-15T11:27:46.845Z,5.18
2023-05-15T11:28:52.383Z,5.25
2023-05-15T11:30:22.549Z,5.35
2023-05-15T11:31:37.364Z,4.72
2023-05-15T11:32:56.104Z,5.25
2023-05-15T11:34:05.773Z,5.22
2023-05-15T11:35:20.919Z,5.38
2023-05-15T11:36:25.105Z,4.82
2023-05-15T11:37:28.263Z,5.38
2023-05-15T11:38:38.224Z,5.47
2023-05-15T11:39:42.013Z,5.30
2023-05-15T11:40:59.269Z,4.90
2023-05-15T11:42:11.890Z,5.25
2023-05-15T11:43:25.878Z,5.28
2023-05-15T11:44:29.585Z,5.18
2023-05-15T11:45:37.037Z,5.47
2023-05-15T11:46:40.222Z,5.10
2023-05-15T11:47:45.596Z,5.60
2023-05-15T11:48:48.769Z,5.18
2023-05-15T11:49:53.352Z,5.25
2023-05-15T11:50:56.149Z,5.07
2023-05-15T11:52:00.262Z,5.07
2023-05-15T11:53:07.908Z,5.90
2023-05-15T11:54:14.663Z,4.95
2023-05-15T11:55:23.404Z,5.57
2023-05-15T11:56:30.888Z,5.03
2023-05-15T11:57:33.730Z,5.55
2023-05-15T11:58:36.559Z,5.43
2023-05-15T11:59:39.294Z,4.97
2023-05-15T12:00:43.627Z,5.50
2023-05-15T12:01:49.598Z,6.05
2023-05-15T12:02:52.680Z,6.05
2023-05-15T12:03:55.836Z,4.70
2023-05-15T12:04:59.005Z,5.20
2023-05-15T12:06:03.054Z,5.28
2023-05-15T12:07:06.472Z,5.25
2023-05-15T12:08:13.506Z,5.38
2023-05-15T12:09:19.654Z,5.10
2023-05-15T12:10:22.774Z,5.38
2023-05-15T12:11:25.970Z,5.15
2023-05-15T12:12:28.952Z,5.00
2023-05-15T12:13:33.295Z,5.18
2023-05-15T12:14:36.214Z,4.80
2023-05-15T12:15:40.443Z,5.10
2023-05-15T12:16:43.445Z,5.10
2023-05-15T12:17:46.924Z,4.82
2023-05-15T12:18:50.373Z,5.00
2023-05-15T12:19:53.833Z,4.78
2023-05-15T12:20:57.314Z,5.38
2023-05-15T12:22:00.266Z,5.38
2023-05-15T12:23:08.735Z,4.93
2023-05-15T12:24:12.988Z,5.07
2023-05-15T12:25:16.781Z,4.78
2023-05-15T12:26:21.918Z,5.47
2023-05-15T12:27:24.815Z,5.57
2023-05-15T12:28:28.881Z,5.55
2023-05-15T12:29:32.222Z,4.88
2023-05-15T12:30:36.185Z,5.10
2023-05-15T12:31:39.146Z,5.15
2023-05-15T12:32:42.902Z,5.43
2023-05-15T12:33:46.420Z,5.40
2023-05-15T12:34:49.584Z,5.78
2023-05-15T12:36:01.048Z,5.10
2023-05-15T12:37:04.604Z,5.63
2023-05-15T12:38:07.775Z,5.60
2023-05-15T12:39:10.952Z,6.00
2023-05-15T12:40:15.126Z,5.63
2023-05-15T12:41:20.335Z,5.93
2023-05-15T12:42:24.049Z,5.60
2023-05-15T12:43:27.256Z,5.97
2023-05-15T12:44:32.127Z,5.68
2023-05-15T12:45:39.682Z,5.97
2023-05-15T12:46:42.880Z,6.28
2023-05-15T12:47:48.387Z,5.90
2023-05-15T12:48:51.900Z,5.25
2023-05-15T12:49:58.318Z,5.40
2023-05-15T12:51:08.519Z,5.28
2023-05-15T12:52:16.229Z,5.28
2023-05-15T12:53:21.663Z,5.88
2023-05-15T12:54:24.652Z,5.40
2023-05-15T12:55:34.592Z,6.15
2023-05-15T12:56:37.597Z,5.90
2023-05-15T12:57:42.638Z,6.40
2023-05-15T12:58:45.714Z,5.80
2023-05-15T12:59:48.510Z,5.30
2023-05-15T13:00:52.460Z,5.40
2023-05-15T13:01:55.780Z,5.38
2023-05-15T13:02:59.624Z,5.00
2023-05-15T13:04:03.258Z,4.65
2023-05-15T13:05:07.063Z,4.60
2023-05-15T13:06:11.858Z,4.63
2023-05-15T13:07:17.912Z,5.10
2023-05-15T13:08:21.178Z,4.80
2023-05-15T13:09:25.526Z,4.20
2023-05-15T13:10:29.380Z,4.70
2023-05-15T13:11:32.268Z,4.63
2023-05-15T13:12:45.640Z,4.55
2023-05-15T13:13:51.236Z,4.47
2023-05-15T13:14:54.189Z,4.53
2023-05-15T13:15:57.144Z,4.10
2023-05-15T13:17:03.112Z,5.25
2023-05-15T13:18:11.029Z,5.40
2023-05-15T13:19:14.071Z,5.53
2023-05-15T13:20:17.151Z,5.10
2023-05-15T13:21:20.385Z,5.65
2023-05-15T13:22:23.349Z,4.97
2023-05-15T13:23:31.374Z,4.82
2023-05-15T13:24:34.395Z,5.40
2023-05-15T13:25:37.537Z,5.28
2023-05-15T13:26:40.649Z,5.20
2023-05-15T13:27:43.430Z,5.63
2023-05-15T13:28:46.490Z,4.93
2023-05-15T13:29:49.322Z,4.80
2023-05-15T13:30:52.322Z,4.47
2023-05-15T13:31:55.216Z,4.28
2023-05-15T13:32:58.346Z,5.13
2023-05-15T13:34:01.129Z,5.10
2023-05-15T13:35:05.623Z,4.28
2023-05-15T13:36:08.671Z,4.88
2023-05-15T13:37:16.176Z,4.00
2023-05-15T13:38:19.275Z,4.25
2023-05-15T13:39:22.275Z,4.35
2023-05-15T13:40:26.321Z,4.00
2023-05-15T13:41:29.466Z,4.93
2023-05-15T13:42:32.500Z,5.05
2023-05-15T13:43:35.399Z,5.72
2023-05-15T13:44:38.275Z,4.28
2023-05-15T13:45:41.736Z,4.38
2023-05-15T13:46:44.606Z,4.70
2023-05-15T13:47:47.747Z,4.45
2023-05-15T13:48:50.887Z,4.78
2023-05-15T13:49:53.949Z,4.07
2023-05-15T13:50:59.289Z,4.28
2023-05-15T13:52:05.325Z,4.72
2023-05-15T13:53:10.687Z,4.57
2023-05-15T13:54:13.579Z,3.95
2023-05-15T13:55:16.523Z,4.72
2023-05-15T13:56:19.423Z,3.90
2023-05-15T13:57:23.092Z,4.53
2023-05-15T13:58:26.981Z,3.92
2023-05-15T13:59:29.811Z,4.10
2023-05-15T14:00:32.764Z,4.90
2023-05-15T14:01:35.724Z,4.55
2023-05-15T14:02:43.389Z,3.88
2023-05-15T14:03:46.525Z,4.22
2023-05-15T14:04:49.418Z,4.57
2023-05-15T14:05:53.107Z,4.68
2023-05-15T14:06:56.632Z,4.65
2023-05-15T14:07:59.672Z,4.50
2023-05-15T14:09:02.649Z,4.25
2023-05-15T14:10:06.400Z,4.40
2023-05-15T14:11:11.152Z,4.10
2023-05-15T14:12:14.142Z,4.18
2023-05-15T14:13:20.120Z,4.30
2023-05-15T14:14:22.922Z,4.45
2023-05-15T14:15:26.105Z,3.88
2023-05-15T14:16:28.955Z,4.65
2023-05-15T14:17:31.960Z,4.53
2023-05-15T14:18:34.954Z,4.13
2023-05-15T14:19:37.877Z,4.30
2023-05-15T14:20:40.690Z,4.47
2023-05-15T14:21:43.867Z,5.60
2023-05-15T14:22:51.908Z,4.97
2023-05-15T14:23:54.789Z,5.20
2023-05-15T14:24:59.404Z,4.97
2023-05-15T14:26:02.284Z,4.75
2023-05-15T14:27:05.403Z,5.32
2023-05-15T14:28:11.594Z,4.15